• Join FlightAware (Why Join?)
  • Login
  • US Flag 
02:28AM EDT


 

Airport Tracker/Info


-or-


 

Live Flight TrackerFlight Track Log ✈ SWA3028 ✈ 28-Apr-2013 ✈ KATL - KMDW

Flight Track Log - Related Links

Times and Time Zones

All times are in EDT time to prevent confusion due to time zone crossing. See the SWA3028 flight status page for this flight to view local times or setup timezone preferences in your user account.

Time Position Orientation Groundspeed Altitude Reporting Facility
EDT Latitude Longitude Course Direction KTS MPH feet Rate Location/Type
06:11AM 33.6667 -84.3167 320° Northwest 273 314 3,900  Level Atlanta TRACON
06:13AM 33.8231 -84.3214 359° North 318 366 11,900 3,660 Climbing Atlanta Center
06:14AM 33.8856 -84.3642 330° Northwest 290 334 15,100 3,000 Climbing Atlanta Center
06:15AM 33.9731 -84.4144 335° Northwest 295 339 18,000 2,220 Climbing Atlanta Center
06:16AM 33.9595 -84.2928 320° Northwest  Level FlightAware Approximate
06:16AM 34.0628 -84.4675 334° Northwest 323 372 19,600  Level Atlanta Center
06:17AM 34.0408 -84.3741 320° Northwest  Level FlightAware Approximate
06:17AM 34.1647 -84.5233 336° Northwest 390 449 23,400  Level Atlanta Center
06:18AM 34.2647 -84.5817 334° Northwest 402 463 25,900 2,220 Climbing Atlanta Center
06:19AM 34.3794 -84.6178 345° North 412 474 27,900 2,040 Climbing Atlanta Center
06:20AM 34.5086 -84.6514 348° North 427 491 30,000 1,980 Climbing Atlanta Center
06:21AM 34.6294 -84.6775 350° North 440 506 31,900 2,040 Climbing Atlanta Center
06:22AM 34.7358 -84.7011 350° North 440 506 34,100 2,100 Climbing Atlanta Center
06:23AM 34.8525 -84.7272 350° North 430 495 36,100 1,980 Climbing Atlanta Center
06:24AM 34.9650 -84.7508 350° North 423 487 38,100 1,500 Climbing Atlanta Center
06:25AM 35.0797 -84.7772 349° North 418 481 39,200 900 Climbing Atlanta Center
06:26AM 35.1944 -84.8036 349° North 413 475 40,000 360 Climbing Atlanta Center
06:27AM 35.3111 -84.8278 350° North 413 475 40,000  Level Atlanta Center
06:28AM 35.4236 -84.8517 350° North 413 475 40,000  Level Atlanta Center
06:29AM 35.5381 -84.8783 349° North 413 475 40,000  Level Atlanta Center
06:32AM 35.8011 -84.9347 350° North 425 489 40,000  Level Indianapolis Center
06:33AM 35.9203 -84.9611 350° North 429 494 40,000  Level Indianapolis Center
06:34AM 36.0375 -84.9869 350° North 426 490 40,000  Level Indianapolis Center
06:35AM 36.1553 -85.0139 350° North 427 491 40,000  Level Indianapolis Center
06:36AM 36.2739 -85.0403 350° North 432 497 40,000  Level Indianapolis Center
06:37AM 36.3919 -85.0672 350° North 432 497 40,000  Level Indianapolis Center
06:38AM 36.5125 -85.0936 350° North 436 502 40,000  Level Indianapolis Center
06:39AM 36.6553 -85.1267 349° North 435 501 40,000  Level Indianapolis Center
06:40AM 36.7772 -85.1539 350° North 442 509 40,000  Level Indianapolis Center
06:41AM 36.8994 -85.1831 349° North 446 513 40,000  Level Indianapolis Center
06:42AM 37.0228 -85.2111 350° North 450 518 40,000  Level Indianapolis Center
06:43AM 37.1344 -85.2358 350° North 453 521 40,000  Level Indianapolis Center
06:44AM 37.2600 -85.2656 349° North 455 524 40,000  Level Indianapolis Center
06:45AM 37.3842 -85.2928 350° North 452 520 40,000  Level Indianapolis Center
06:46AM 37.5092 -85.3225 349° North 456 525 40,000  Level Indianapolis Center
06:47AM 37.6328 -85.3533 349° North 451 519 40,000  Level Indianapolis Center
06:48AM 37.7567 -85.3828 349° North 452 520 40,000  Level Indianapolis Center
06:49AM 37.8986 -85.4136 350° North 463 533 40,000  Level Indianapolis Center
06:50AM 38.0239 -85.4431 350° North 459 528 40,000  Level Indianapolis Center
06:51AM 38.1469 -85.4728 349° North 454 522 40,000 -240 Level Indianapolis Center
06:52AM 38.2706 -85.5011 350° North 451 519 39,600 -1,440 Descending Indianapolis Center
06:53AM 38.3922 -85.5300 349° North 447 514 37,100 -2,340 Descending Indianapolis Center
06:54AM 38.5161 -85.5614 349° North 451 519 35,000 -1,080 Descending Indianapolis Center
06:55AM 38.6544 -85.5942 350° North 472 543 35,000  Level Indianapolis Center
06:56AM 38.7875 -85.6264 349° North 480 552 35,000 -540 Level Indianapolis Center
06:57AM 38.9200 -85.6589 349° North 481 554 34,000 -1,020 Descending Indianapolis Center
06:58AM 39.0522 -85.6900 350° North 481 554 33,000 -960 Descending Indianapolis Center
06:59AM 39.1850 -85.7222 349° North 483 556 32,100 -960 Descending Indianapolis Center
07:00AM 39.3172 -85.7556 349° North 482 555 31,100 -1,080 Descending Indianapolis Center
07:01AM 39.4425 -85.7864 349° North 459 528 30,000 -1,080 Descending Indianapolis Center
07:02AM 39.5628 -85.8156 349° North 444 511 29,000 -1,020 Descending Indianapolis Center
07:03AM 39.6808 -85.8450 349° North 433 498 28,000 -1,020 Descending Indianapolis Center
07:04AM 39.7958 -85.8736 349° North 425 489 27,000 -1,620 Descending Indianapolis Center
07:05AM 39.9094 -85.9019 349° North 418 481 24,800 -1,500 Descending Indianapolis Center
07:06AM 40.0208 -85.9311 349° North 410 472 24,000 -660 Descending Indianapolis Center
07:07AM 40.1192 -86.0014 331° Northwest 403 464 23,500 -600 Descending Indianapolis Center
07:08AM 40.1678 -86.0381 330° Northwest 406 467 23,100 -660 Descending Chicago Center
07:09AM 40.2617 -86.1144 328° Northwest 399 459 22,500 -600 Descending Chicago Center
07:10AM 40.3717 -86.2044 328° Northwest 398 458 22,000 -300 Descending Chicago Center
07:11AM 40.4647 -86.2797 328° Northwest 394 453 22,000  Level Chicago Center
07:12AM 40.5581 -86.3550 329° Northwest 392 451 22,000 -240 Level Chicago Center
07:13AM 40.6511 -86.4328 328° Northwest 394 453 21,600 -660 Descending Chicago Center
07:14AM 40.7228 -86.4956 326° Northwest 382 440 20,700 -1,500 Descending Chicago Center
07:15AM 40.8078 -86.5644 328° Northwest 361 415 18,600 -2,040 Descending Chicago Center
07:16AM 40.8956 -86.6372 328° Northwest 370 426 16,600 -1,740 Descending Chicago Center
07:17AM 40.9764 -86.7053 328° Northwest 350 403 15,100 -1,740 Descending Chicago Center
07:18AM 41.0606 -86.7742 328° Northwest 339 390 13,200 -1,800 Descending Chicago Center
07:19AM 41.1381 -86.8403 327° Northwest 333 383 11,500 -1,140 Descending Chicago Center
07:20AM 41.2128 -86.9022 328° Northwest 322 371 11,000 -780 Descending Chicago Center
07:21AM 41.2936 -86.9719 327° Northwest 295 339 10,000 -840 Descending Chicago Center
07:22AM 41.3617 -87.0289 328° Northwest 291 335 9,300 -960 Descending Chicago Center
07:23AM 41.4092 -87.1067 309° West 287 330 8,100 -1,140 Descending Chicago Center
07:23AM 41.4167 -87.1500 283° West 281 323 7,700 -1,080 Descending Chicago TRACON
07:24AM 41.4333 -87.2333 285° West 282 325 6,700 -1,020 Descending Chicago TRACON
07:25AM 41.4667 -87.3333 294° West 283 326 5,800 -960 Descending Chicago TRACON
07:26AM 41.4806 -87.4025 285° West 283 326 5,100 -780 Descending Chicago Center
07:27AM 41.5036 -87.5006 287° West 281 323 4,500 -600 Descending Chicago Center
07:28AM 41.5267 -87.5972 288° West 279 321 4,000 -300 Descending Chicago Center
07:29AM 41.5486 -87.6928 287° West 276 318 4,000  Level Chicago Center
07:30AM 41.5711 -87.7881 288° West 274 315 4,000 -300 Level Chicago Center
07:31AM 41.6106 -87.8608 306° West 254 292 3,400 -780 Descending Chicago Center
07:32AM 41.6725 -87.8803 347° North 235 270 2,500 -540 Descending Chicago Center
07:33AM 41.7142 -87.8431 34° Northeast 202 232 2,400 -360 Descending Chicago Center
07:33AM 41.7167 -87.8333 71° East 164 189 2,100 -720 Descending Chicago TRACON
07:34AM 41.7500 -87.8000 37° Northeast 119 137 1,400 -660 Descending Chicago TRACON